Flight Track Log - Related Links

Times and Time Zones

All times are in EDT time to prevent confusion due to time zone crossing. See the RPA4937 flight status page for this flight to view local times or setup timezone preferences in your user account.

Time Position Orientation Groundspeed Altitude Reporting Facility
EDT Latitude Longitude Course Direction KTS MPH feet Rate Location/Type
Tue 08:29:57 AM 40.4872 -107.2325 90° East 39 45 6,400  Level Denver Center
Tue 08:30:58 AM 40.4728 -107.1919 115° Southeast 184 212 7,400 1,574 Climbing Denver Center
Tue 08:31:59 AM 40.4278 -107.1586 151° Southeast 188 216 9,600 2,066 Climbing Denver Center
Tue 08:33:00 AM 40.3733 -107.1308 159° South 202 232 11,600 1,820 Climbing Denver Center
Tue 08:34:00 AM 40.5167 -106.7467 90° East  Level FlightAware Approximate
Tue 08:34:01 AM 40.3264 -107.0722 136° Southeast 234 269 13,300  Level Denver Center
Tue 08:35:00 AM 40.5167 -106.6351 90° East  Level FlightAware Approximate
Tue 08:35:02 AM 40.3461 -106.9969 71° East 227 261 14,900  Level Denver Center
Tue 08:36:00 AM 40.5167 -106.5235 90° East  Level FlightAware Approximate
Tue 08:36:03 AM 40.3417 -106.8978 93° East 243 280 16,700  Level Denver Center
Tue 08:37:04 AM 40.3464 -106.8133 86° East 247 284 17,800 984 Climbing Denver Center
Tue 08:38:05 AM 40.3464 -106.7119 90° East 271 312 18,700 1,131 Climbing Denver Center
Tue 08:39:06 AM 40.3456 -106.6103 91° East 278 320 20,100 1,279 Climbing Denver Center
Tue 08:40:07 AM 40.3478 -106.5050 88° East 279 321 21,300 1,033 Climbing Denver Center
Tue 08:41:08 AM 40.3486 -106.4078 89° East 277 319 22,200 836 Climbing Denver Center
Tue 08:42:09 AM 40.3508 -106.2925 89° East 282 325 23,000 393 Climbing Denver Center
Tue 08:43:10 AM 40.3519 -106.1847 89° East 301 346 23,000  Level Denver Center
Tue 08:44:11 AM 40.3517 -106.0700 90° East 320 368 23,000  Level Denver Center
Tue 08:45:12 AM 40.3531 -105.9469 89° East 333 383 23,000 -49 Level Denver Center
Tue 08:46:13 AM 40.3544 -105.8203 89° East 344 396 22,900 -1,131 Descending Denver Center
Tue 08:47:14 AM 40.3544 -105.6919 90° East 350 403 20,700 -2,508 Descending Denver Center
Tue 08:48:15 AM 40.3550 -105.5344 90° East 359 413 17,800 -2,213 Descending Denver Center
Tue 08:49:16 AM 40.3308 -105.4156 105° East 371 427 16,200 -1,561 Descending Denver Center
Tue 08:50:18 AM 40.3044 -105.3039 107° East 326 375 14,600 -1,512 Descending Denver Center
Tue 08:51:19 AM 40.2775 -105.1875 107° East 313 360 13,100 -787 Descending Denver Center
Tue 08:52:20 AM 40.2542 -105.0808 106° East 307 353 13,000 -49 Descending Denver Center
Tue 08:53:21 AM 40.2289 -104.9764 108° East 304 350 13,000 -295 Level Denver Center
Tue 08:54:22 AM 40.1883 -104.8758 118° Southeast 316 364 12,400 -836 Descending Denver Center
Tue 08:55:23 AM 40.1436 -104.7756 120° Southeast 318 366 11,300 -1,475 Descending Denver Center
Tue 08:56:24 AM 40.0806 -104.7053 140° Southeast 292 336 9,400 -1,721 Descending Denver Center
Tue 08:57:25 AM 40.0044 -104.6958 175° South 275 316 7,800 -1,366 Descending Denver Center
Tue 08:58:27 AM 39.9483 -104.6956 180° South 195 224 6,600 -1,073 Descending Denver Center
Tue 08:59:28 AM 39.9089 -104.6958 180° South 140 161 5,600 -639 Descending Denver Center
Tue 09:00:29 AM 39.8772 -104.6961 180° South 105 121 5,300 -295 Descending Denver Center
Tue 09:02:00 AM 39.8617 -104.6732 162° South  Level Estimated
Tue 09:09:00 AM 39.8617 -104.6732 339° North  Level Estimated
Tue 09:10:00 AM 39.8617 -104.6732 339° North  Level Estimated

Login

Don't have an account? Register now (free) for customized features, flight alerts, and more!